AirNav   Pilot Hours Calculator
 
 1165 users online  

16LL Oak Landing Heliport
Bull Valley, Illinois, USA

GOING TO BULL VALLEY?


FAA INFORMATION EFFECTIVE 22 APRIL 2021

Location

FAA Identifier: 16LL
Lat/Long: 42-18-00.0000N 088-22-50.0000W
42-18.000000N 088-22.833333W
42.3000000,-88.3805556
(estimated)
Elevation: 870 ft. / 265 m (estimated)
Variation: 02W (2000)
From city: 2 miles W of BULL VALLEY, IL
Time zone: UTC -5 (UTC -6 during Standard Time)
Zip code: 60098

Heliport Operations

Heliport use: Private use. Permission required prior to landing
Activation date: 03/2001
Control tower: no
ARTCC: CHICAGO CENTER
FSS: KANKAKEE FLIGHT SERVICE STATION
Attendance: UNATNDD
Segmented circle: no

Nearby radio navigation aids

VOR radial/distance  VOR name  Freq  Var
OBKr286/19.6NORTHBROOK VOR/DME113.0002W
DPAr355/24.6DUPAGE VOR/DME108.4002E
JVLr113/35.6JANESVILLE VOR/DME114.3003E
RFDr082/36.6ROCKFORD VOR/DME110.8001E

Heliport Services

Runway Information

Helipad H1

Dimensions: 100 x 100 ft. / 30 x 30 m
Surface: turf
Traffic pattern: leftleft

Heliport Ownership and Management from official FAA records

Ownership: Privately-owned
Owner: PAUL T. KINSELLA JR
167 TAMPA AVE E UNIT 513
VENICE, FL 34285-1950
Phone (815) 505-8701
Manager: PAUL T. KINSELLA JR
167 TAMPA AVE E UNIT 513
VENICE, FL 34285-1950
Phone 815-505-8701

Additional Remarks

FOR CD CTC CHICAGO APCH AT 847-289-0926.

Instrument Procedures

There are no published instrument procedures at 16LL.

Some nearby airports with instrument procedures:

3CK - Lake in the Hills Airport (6 nm SE)
10C - Galt Field Airport (6 nm N)
C81 - Campbell Airport (14 nm E)
C02 - Grand Geneva Resort Airport (19 nm N)
C77 - Poplar Grove Airport (20 nm W)
 
Loc | Ops | Rwys | IFR | FBO | Links
Com | Nav | Svcs | Stats | Notes
Area around 16LL (Oak Landing Heliport)
 
Road maps at: MapQuest Bing Google
 
Aerial photo
No photo
 
Sectional chart

 
Airport distance calculator
Flying to Oak Landing Heliport? Find the distance to fly.

From to 16LL

Sunrise and sunset
Times for 16-May-2021
 Local
(UTC-5)
 Zulu
(UTC)
Morning civil twilight05:0010:00
Sunrise05:3210:32
Sunset20:0801:08
Evening civil twilight20:4001:40

Current date and time
Zulu (UTC)  16-May-2021 17:43:53
Local (UTC-5)  16-May-2021 12:43:53
 
METAR
K06C 
22nm SE 
161715Z AUTO 19006KT 10SM BKN044 A3018 RMK AO2
KBUU 
23nm N 
161715Z AUTO 20006KT 10SM 19/11 A3018 RMK AO2 T01870114 PWINO
KDPA 
24nm S 
161652Z VRB05KT 10SM CLR 20/09 A3018 RMK AO2 SLP219 T02000094
KUGN 
24nm E 
161655Z 10009KT 10SM BKN039 BKN048 18/09 A3018 RMK AO2 SLP217 T01780089
KPWK 
24nm SE 
161652Z 20004KT 10SM BKN050 BKN060 20/08 A3019 RMK AO2 SLP223 T02000078
KDKB 
26nm SW 
161715Z AUTO 22008KT 10SM OVC037 18/11 A3019 RMK AO2 T01810113
KENW 
27nm NE 
161653Z 13009KT 10SM BKN035 OVC045 18/11 A3019 RMK AO2 SLP222 T01830106
KORD 
28nm SE 
161651Z VRB06KT 10SM SCT046 SCT060 21/08 A3018 RMK AO2 SLP217 T02060078 $
K57C 
30nm N 
161715Z AUTO 18005KT 10SM SCT034 OVC049 18/11 A3018 RMK AO2 T01830108
KARR 
32nm S 
161652Z 15009KT 10SM FEW050 19/11 A3018 RMK AO2 SLP220 T01940106
TAF
KDPA 
24nm S 
161448Z 1615/1712 19006KT P6SM BKN050 FM170100 12005KT P6SM SCT060 BKN150
KENW 
27nm NE 
161437Z 1615/1712 22004KT P6SM FEW030 FM162000 12007KT P6SM SCT050 FM170500 11003KT P6SM BKN200
KORD 
28nm SE 
161448Z 1615/1718 19006KT P6SM BKN050 FM162000 10009KT P6SM SCT060 BKN200 FM170200 11005KT P6SM SCT070 BKN150 FM171400 11010KT P6SM BKN060
NOTAMs
Click for the latest NOTAMs
NOTAMs are issued by the DoD/FAA and will open in a separate window not controlled by AirNav.

 

 
 

Would you like to see your business listed on this page?

 If your business provides an interesting product or service to pilots, flight crews, aircraft, or users of the Oak Landing Heliport, you should consider listing it here.  To start the listing process, click on the button below
 
Add a business
 

Other Pages about Oak Landing Heliport

Update a link
 
Copyright © AirNav, LLC. All rights reserved. Privacy Policy  Contact